Time;durP1;ratioP1;P1;durP2;ratioP2;P2;SDS_P1;SDS_P2;PMS_P1;PMS_P2;Temp;Humidity;BMP_temperature;BMP_pressure;BME280_temperature;BME280_humidity;BME280_pressure;Samples;Min_cycle;Max_cycle;Signal;HPM_P1;HPM_P2
2022/05/11 00:00:36;;;;;;;1999.90;999.90;;;19.50;99.90;;;;;;4951695;29;20414;-73
2022/05/11 00:03:04;;;;;;;1999.90;999.90;;;19.50;99.90;;;;;;4951522;29;21008;-73
2022/05/11 00:05:30;;;;;;;1999.90;999.90;;;19.40;99.90;;;;;;4951251;29;20180;-74
2022/05/11 00:07:56;;;;;;;1999.90;999.90;;;19.30;99.90;;;;;;4951555;29;20411;-74
2022/05/11 00:10:22;;;;;;;1999.90;999.90;;;19.30;99.90;;;;;;4951462;29;20420;-75
2022/05/11 00:12:48;;;;;;;1999.90;999.90;;;19.10;99.90;;;;;;4951272;29;20268;-73
2022/05/11 00:15:17;;;;;;;1999.90;999.90;;;19.00;99.90;;;;;;4951206;28;20201;-73
2022/05/11 00:17:43;;;;;;;1999.90;999.90;;;18.90;99.90;;;;;;4951429;29;20186;-75
2022/05/11 00:20:12;;;;;;;1999.90;999.90;;;18.90;99.90;;;;;;4951447;28;20484;-75
2022/05/11 00:22:38;;;;;;;1999.90;999.90;;;18.80;99.90;;;;;;4951179;29;20470;-75
2022/05/11 00:25:06;;;;;;;1999.90;999.90;;;18.80;99.90;;;;;;4951037;29;20404;-75
2022/05/11 00:27:32;;;;;;;1999.90;999.90;;;18.80;99.90;;;;;;4951315;29;20826;-75
2022/05/11 00:29:58;;;;;;;1999.90;999.90;;;18.60;99.90;;;;;;4951424;28;20414;-75
2022/05/11 00:32:25;;;;;;;1999.90;999.90;;;18.60;99.90;;;;;;4951172;29;20949;-75
2022/05/11 00:34:51;;;;;;;1999.90;999.90;;;18.60;99.90;;;;;;4949902;29;20413;-75
2022/05/11 00:37:18;;;;;;;1999.90;999.90;;;18.50;99.90;;;;;;4951195;29;20412;-75
2022/05/11 00:39:44;;;;;;;1999.90;999.90;;;18.50;99.90;;;;;;4951108;29;20417;-75
2022/05/11 00:42:10;;;;;;;1999.90;999.90;;;18.50;99.90;;;;;;4950946;29;20557;-75
2022/05/11 00:44:36;;;;;;;1999.90;999.90;;;18.40;99.90;;;;;;4950810;29;20182;-75
2022/05/11 00:47:09;;;;;;;1999.90;999.90;;;18.30;99.90;;;;;;4951116;29;20173;-74
2022/05/11 00:49:39;;;;;;;1999.90;999.90;;;18.30;99.90;;;;;;4951038;29;20421;-74
2022/05/11 00:52:15;;;;;;;1999.90;999.90;;;18.30;99.90;;;;;;4950952;29;20426;-74
2022/05/11 00:54:47;;;;;;;1999.90;999.90;;;18.20;99.90;;;;;;4950710;29;20401;-73
2022/05/11 00:57:25;;;;;;;1999.90;999.90;;;18.20;99.90;;;;;;4951042;29;20413;-74
2022/05/11 00:59:52;;;;;;;1999.90;999.90;;;18.20;99.90;;;;;;4950973;29;20477;-74
2022/05/11 01:02:21;;;;;;;1999.90;999.90;;;18.30;99.90;;;;;;4950793;29;20462;-74
2022/05/11 01:04:47;;;;;;;1999.90;999.90;;;18.30;99.90;;;;;;4950599;29;20418;-74
2022/05/11 01:07:14;;;;;;;1999.90;999.90;;;18.30;99.90;;;;;;4950857;29;20421;-74
2022/05/11 01:09:40;;;;;;;1999.90;999.90;;;18.30;99.90;;;;;;4950740;29;20420;-74
2022/05/11 01:12:14;;;;;;;1999.90;999.90;;;18.30;99.90;;;;;;4950574;29;20442;-74
2022/05/11 01:14:43;;;;;;;1999.90;999.90;;;18.30;99.90;;;;;;4934246;29;20901;-75
2022/05/11 01:17:10;;;;;;;1999.90;999.90;;;18.20;99.90;;;;;;4950730;29;20415;-75
2022/05/11 01:19:41;;;;;;;1999.90;999.90;;;18.20;99.90;;;;;;4950594;29;20410;-74
2022/05/11 01:22:26;;;;;;;1999.90;999.90;;;18.20;99.90;;;;;;4950513;29;20506;-74
2022/05/11 01:24:52;;;;;;;1999.90;999.90;;;18.20;99.90;;;;;;4950198;28;20948;-75
2022/05/11 01:27:30;;;;;;;1999.90;999.90;;;18.20;99.90;;;;;;4950623;29;20417;-74
2022/05/11 01:30:02;;;;;;;1999.90;999.90;;;18.10;99.90;;;;;;4950565;29;20179;-74
2022/05/11 01:32:29;;;;;;;1999.90;999.90;;;18.10;99.90;;;;;;4950418;29;20501;-74
2022/05/11 01:35:25;;;;;;;1999.90;999.90;;;18.00;99.90;;;;;;4950157;29;20417;-74
2022/05/11 01:38:22;;;;;;;1999.90;999.90;;;18.00;99.90;;;;;;4950440;29;20467;-74
2022/05/11 01:40:47;;;;;;;1999.90;999.90;;;18.00;99.90;;;;;;4950388;29;20410;-74
2022/05/11 01:43:15;;;;;;;1999.90;999.90;;;17.90;99.90;;;;;;4950331;29;20434;-74
2022/05/11 01:45:41;;;;;;;1999.90;999.90;;;17.80;99.90;;;;;;4950750;28;20178;-73
2022/05/11 01:48:06;;;;;;;1999.90;999.90;;;17.80;99.90;;;;;;4953650;29;20415;-74
2022/05/11 01:50:32;;;;;;;1999.90;999.90;;;17.80;99.90;;;;;;4953590;29;20205;-73
2022/05/11 01:52:58;;;;;;;1999.90;999.90;;;17.80;99.90;;;;;;4953383;29;20718;-74
2022/05/11 01:55:23;;;;;;;1999.90;999.90;;;17.70;99.90;;;;;;4953305;29;20210;-73
2022/05/11 01:57:50;;;;;;;1999.90;999.90;;;17.70;99.90;;;;;;4953538;29;20201;-75
2022/05/11 02:00:17;;;;;;;1999.90;999.90;;;17.70;99.90;;;;;;4953468;29;20175;-75
2022/05/11 02:02:42;;;;;;;1999.90;999.90;;;17.70;99.90;;;;;;4953254;29;20464;-74
2022/05/11 02:07:53;;;;;;;1999.90;999.90;;;17.70;99.90;;;;;;4953394;29;20572;-74
2022/05/11 02:10:20;;;;;;;1999.90;999.90;;;17.70;99.90;;;;;;4953334;29;20447;-75
2022/05/11 02:12:46;;;;;;;1999.90;999.90;;;17.60;99.90;;;;;;4953092;29;20454;-74
2022/05/11 02:15:14;;;;;;;1999.90;999.90;;;17.60;99.90;;;;;;4952992;29;20845;-75
2022/05/11 02:17:43;;;;;;;1999.90;999.90;;;17.50;99.90;;;;;;4953189;29;20415;-75
2022/05/11 02:20:11;;;;;;;1999.90;999.90;;;17.50;99.90;;;;;;4953175;29;20427;-75
2022/05/11 02:22:37;;;;;;;1999.90;999.90;;;17.40;99.90;;;;;;4952915;28;21039;-75
2022/05/11 02:25:03;;;;;;;1999.90;999.90;;;17.40;99.90;;;;;;4952864;29;20407;-75
2022/05/11 02:27:31;;;;;;;1999.90;999.90;;;17.30;99.90;;;;;;4953075;29;20167;-74
2022/05/11 02:29:57;;;;;;;1999.90;999.90;;;17.40;99.90;;;;;;4953044;29;20423;-75
2022/05/11 02:32:23;;;;;;;1999.90;999.90;;;17.30;99.90;;;;;;4952916;29;20431;-74
2022/05/11 02:37:33;;;;;;;1999.90;999.90;;;17.20;99.90;;;;;;4952971;29;21055;-74
2022/05/11 02:39:59;;;;;;;1999.90;999.90;;;17.10;99.90;;;;;;4952866;29;20506;-74
2022/05/11 02:42:25;;;;;;;1999.90;999.90;;;17.10;99.90;;;;;;4952770;29;20215;-74
2022/05/11 02:44:50;;;;;;;1999.90;999.90;;;17.00;99.90;;;;;;4952487;29;20807;-74
2022/05/11 02:47:16;;;;;;;1999.90;999.90;;;17.00;99.90;;;;;;4952798;29;20172;-73
2022/05/11 02:49:41;;;;;;;1999.90;999.90;;;17.00;99.90;;;;;;4952809;29;20224;-73
2022/05/11 02:52:07;;;;;;;1999.90;999.90;;;16.90;99.90;;;;;;4952613;29;20253;-73
2022/05/11 02:54:33;;;;;;;1999.90;999.90;;;16.90;99.90;;;;;;4952421;29;20549;-72
2022/05/11 02:56:58;;;;;;;1999.90;999.90;;;16.90;99.90;;;;;;4952001;28;20682;-73
2022/05/11 02:59:24;;;;;;;1999.90;999.90;;;16.80;99.90;;;;;;4952255;29;20600;-73
2022/05/11 03:01:51;;;;;;;1999.90;999.90;;;16.80;99.90;;;;;;4952484;29;20264;-73
2022/05/11 03:04:18;;;;;;;1999.90;999.90;;;16.70;99.90;;;;;;4952273;29;20177;-73
2022/05/11 03:06:47;;;;;;;1999.90;999.90;;;16.70;99.90;;;;;;4952407;29;20441;-72
2022/05/11 03:09:17;;;;;;;1999.90;999.90;;;16.60;99.90;;;;;;4952454;29;20785;-73
2022/05/11 03:11:44;;;;;;;1999.90;999.90;;;16.60;99.90;;;;;;4935295;29;20445;-73
2022/05/11 03:14:11;;;;;;;1999.90;999.90;;;16.60;99.90;;;;;;4934744;29;20464;-73
2022/05/11 03:16:37;;;;;;;1999.90;999.90;;;16.60;99.90;;;;;;4952357;29;20916;-74
2022/05/11 03:19:04;;;;;;;1999.90;999.90;;;16.60;99.90;;;;;;4952429;29;20578;-73
2022/05/11 03:21:29;;;;;;;1999.90;999.90;;;16.50;99.90;;;;;;4952247;29;20454;-73
2022/05/11 03:23:55;;;;;;;1999.90;999.90;;;16.60;99.90;;;;;;4952071;29;20794;-74
2022/05/11 03:26:22;;;;;;;1999.90;999.90;;;16.60;99.90;;;;;;4952022;29;20414;-73
2022/05/11 03:28:48;;;;;;;1999.90;999.90;;;16.60;99.90;;;;;;4952035;29;20446;-73
2022/05/11 03:31:15;;;;;;;1999.90;999.90;;;16.70;99.90;;;;;;4952138;29;20623;-75
2022/05/11 03:36:25;;;;;;;1999.90;999.90;;;16.60;99.90;;;;;;4952290;29;20452;-74
2022/05/11 03:38:51;;;;;;;1999.90;999.90;;;16.50;99.90;;;;;;4951907;29;20477;-74
2022/05/11 03:41:17;;;;;;;1999.90;999.90;;;16.40;99.90;;;;;;4951901;29;20210;-74
2022/05/11 03:43:43;;;;;;;1999.90;999.90;;;16.40;99.90;;;;;;4951896;29;20198;-74
2022/05/11 03:46:08;;;;;;;1999.90;999.90;;;16.40;99.90;;;;;;4951670;29;20834;-74
2022/05/11 03:48:35;;;;;;;1999.90;999.90;;;16.40;99.90;;;;;;4934724;29;20464;-74
2022/05/11 03:51:01;;;;;;;1999.90;999.90;;;16.40;99.90;;;;;;4951847;29;20175;-74
2022/05/11 03:53:27;;;;;;;1999.90;999.90;;;16.30;99.90;;;;;;4951733;29;20433;-75
2022/05/11 03:55:53;;;;;;;1999.90;999.90;;;16.30;99.90;;;;;;4951432;29;20859;-73
2022/05/11 03:58:19;;;;;;;1999.90;999.90;;;16.30;99.90;;;;;;4951713;29;20412;-72
2022/05/11 04:00:44;;;;;;;1999.90;999.90;;;16.30;99.90;;;;;;4951700;29;20533;-73
2022/05/11 04:03:10;;;;;;;1999.90;999.90;;;16.30;99.90;;;;;;4951506;29;20617;-73
2022/05/11 04:05:35;;;;;;;1999.90;999.90;;;16.40;99.90;;;;;;4951315;29;20194;-74
2022/05/11 04:08:01;;;;;;;1999.90;999.90;;;16.40;99.90;;;;;;4951587;29;20280;-73
2022/05/11 04:10:27;;;;;;;1999.90;999.90;;;16.40;99.90;;;;;;4951346;29;20252;-73
2022/05/11 04:12:53;;;;;;;1999.90;999.90;;;16.30;99.90;;;;;;4951316;29;20209;-73
2022/05/11 04:15:19;;;;;;;1999.90;999.90;;;16.30;99.90;;;;;;4951208;29;20750;-72
2022/05/11 04:17:45;;;;;;;1999.90;999.90;;;16.30;99.90;;;;;;4951503;29;20178;-73
2022/05/11 04:20:14;;;;;;;1999.90;999.90;;;16.20;99.90;;;;;;4951400;29;20210;-73
2022/05/11 04:22:40;;;;;;;1999.90;999.90;;;16.00;99.90;;;;;;4951076;28;20482;-73
2022/05/11 04:25:06;;;;;;;1999.90;999.90;;;16.00;99.90;;;;;;4951072;29;20500;-75
2022/05/11 04:27:33;;;;;;;1999.90;999.90;;;16.10;99.90;;;;;;4951272;29;20167;-74
2022/05/11 04:30:00;;;;;;;1999.90;999.90;;;16.10;99.90;;;;;;4951257;29;20409;-75
2022/05/11 04:32:26;;;;;;;1999.90;999.90;;;16.10;99.90;;;;;;4951211;29;20449;-74
2022/05/11 04:34:52;;;;;;;1999.90;999.90;;;16.20;99.90;;;;;;4950916;29;20459;-75
2022/05/11 04:37:18;;;;;;;1999.90;999.90;;;16.20;99.90;;;;;;4951129;29;20477;-75
2022/05/11 04:39:43;;;;;;;1999.90;999.90;;;16.20;99.90;;;;;;4951236;29;20175;-75
2022/05/11 04:42:11;;;;;;;1999.90;999.90;;;16.10;99.90;;;;;;4951072;29;20587;-75
2022/05/11 04:44:37;;;;;;;1999.90;999.90;;;16.00;99.90;;;;;;4950827;29;20256;-74
2022/05/11 04:47:13;;;;;;;1999.90;999.90;;;16.00;99.90;;;;;;4951060;29;20501;-75
2022/05/11 04:49:40;;;;;;;1999.90;999.90;;;15.90;99.90;;;;;;4951071;29;20406;-74
2022/05/11 04:52:08;;;;;;;1999.90;999.90;;;15.80;99.90;;;;;;4950920;29;20407;-75
2022/05/11 04:54:38;;;;;;;1999.90;999.90;;;15.80;99.90;;;;;;4950826;29;20421;-75
2022/05/11 04:57:05;;;;;;;1999.90;999.90;;;15.80;99.90;;;;;;4951038;29;20407;-75
2022/05/11 04:59:32;;;;;;;1999.90;999.90;;;15.80;99.90;;;;;;4951115;29;20769;-74
2022/05/11 05:01:59;;;;;;;1999.90;999.90;;;15.90;99.90;;;;;;4950743;29;20450;-74
2022/05/11 05:04:26;;;;;;;1999.90;999.90;;;16.00;99.90;;;;;;4950531;29;20497;-74
2022/05/11 05:06:51;;;;;;;1999.90;999.90;;;16.10;99.90;;;;;;4950846;29;20410;-74
2022/05/11 05:09:17;;;;;;;1999.90;999.90;;;16.10;99.90;;;;;;4950801;29;20409;-74
2022/05/11 05:11:43;;;;;;;1999.90;999.90;;;16.20;99.90;;;;;;4950834;29;20178;-74
2022/05/11 05:14:08;;;;;;;1999.90;999.90;;;16.30;99.90;;;;;;4950769;29;20213;-73
2022/05/11 05:16:34;;;;;;;1999.90;999.90;;;16.30;99.90;;;;;;4950660;29;20706;-73
2022/05/11 05:19:00;;;;;;;1999.90;999.90;;;16.30;99.90;;;;;;4950607;29;20190;-73
2022/05/11 05:21:25;;;;;;;1999.90;999.90;;;16.40;99.90;;;;;;4952244;28;20209;-73
2022/05/11 05:23:52;;;;;;;1999.90;999.90;;;16.60;99.90;;;;;;4936855;29;20196;-73
2022/05/11 05:26:17;;;;;;;1999.90;999.90;;;16.60;99.90;;;;;;4953766;29;20171;-73
2022/05/11 05:31:30;;;;;;;1999.90;999.90;;;16.80;99.90;;;;;;4954061;29;20686;-73
2022/05/11 05:33:59;;;;;;;1999.90;999.90;;;16.90;99.90;;;;;;4953646;29;20446;-73
2022/05/11 05:36:27;;;;;;;1999.90;999.90;;;17.00;99.90;;;;;;4953711;29;20420;-73
2022/05/11 05:38:53;;;;;;;1999.90;999.90;;;17.10;99.90;;;;;;4953849;29;20556;-73
2022/05/11 05:41:19;;;;;;;1999.90;999.90;;;17.20;99.90;;;;;;4953660;29;20532;-74
2022/05/11 05:43:44;;;;;;;1999.90;999.90;;;17.20;99.90;;;;;;4953684;29;20437;-73
2022/05/11 05:46:10;;;;;;;1999.90;999.90;;;17.30;99.90;;;;;;4953415;29;20168;-74
2022/05/11 05:48:35;;;;;;;1999.90;999.90;;;17.50;99.90;;;;;;4953695;29;20633;-75
2022/05/11 05:51:06;;;;;;;1999.90;999.90;;;17.50;99.90;;;;;;4953605;29;20225;-74
2022/05/11 05:53:31;;;;;;;1999.90;999.90;;;17.60;99.90;;;;;;4953586;29;20238;-74
2022/05/11 05:55:57;;;;;;;1999.90;999.90;;;17.70;99.90;;;;;;4953294;29;20842;-74
2022/05/11 05:58:22;;;;;;;1999.90;999.90;;;17.70;99.90;;;;;;4953537;29;20258;-75
2022/05/11 06:00:48;;;;;;;1999.90;999.90;;;17.80;99.90;;;;;;4953459;29;20177;-74
2022/05/11 06:03:20;;;;;;;1999.90;999.90;;;17.80;99.90;;;;;;4953263;29;20215;-75
2022/05/11 06:05:45;;;;;;;1999.90;999.90;;;17.90;99.90;;;;;;4935987;29;20644;-75
2022/05/11 06:08:15;;;;;;;1999.90;999.90;;;18.00;99.90;;;;;;4953324;29;20439;-74
2022/05/11 06:10:41;;;;;;;1999.90;999.90;;;18.10;99.90;;;;;;4953359;29;20715;-75
2022/05/11 06:13:07;;;;;;;1999.90;999.90;;;18.10;99.90;;;;;;4953105;29;20497;-75
2022/05/11 06:15:33;;;;;;;1999.90;999.90;;;18.10;99.90;;;;;;4953009;29;20976;-75
2022/05/11 06:17:59;;;;;;;1999.90;999.90;;;18.20;99.90;;;;;;4953211;29;20452;-75
2022/05/11 06:20:25;;;;;;;1999.90;999.90;;;18.20;99.90;;;;;;4953390;29;20428;-75
2022/05/11 06:22:53;;;;;;;1999.90;999.90;;;18.30;99.90;;;;;;4952990;29;20473;-76
2022/05/11 06:25:20;;;;;;;1999.90;999.90;;;18.30;99.90;;;;;;4952872;29;20179;-75
2022/05/11 06:27:46;;;;;;;1999.90;999.90;;;18.30;99.90;;;;;;4953057;29;20450;-75
2022/05/11 06:30:12;;;;;;;1999.90;999.90;;;18.40;99.90;;;;;;4953011;29;20417;-75
2022/05/11 06:32:37;;;;;;;1999.90;999.90;;;18.40;99.90;;;;;;4951613;29;20450;-75
2022/05/11 06:35:04;;;;;;;1999.90;999.90;;;18.50;99.90;;;;;;4952749;29;20415;-75
2022/05/11 06:37:30;;;;;;;1999.90;999.90;;;18.60;99.90;;;;;;4953017;29;20279;-75
2022/05/11 06:39:56;;;;;;;1999.90;999.90;;;18.60;99.90;;;;;;4952932;29;20510;-76
2022/05/11 06:42:22;;;;;;;1999.90;999.90;;;18.70;99.90;;;;;;4952661;29;20207;-75
2022/05/11 06:44:49;;;;;;;1999.90;999.90;;;18.70;99.90;;;;;;4952599;29;20762;-75
2022/05/11 06:47:15;;;;;;;1999.90;999.90;;;18.80;99.90;;;;;;4952737;29;20182;-75
2022/05/11 06:49:41;;;;;;;1999.90;999.90;;;18.90;99.90;;;;;;4952801;29;20417;-75
2022/05/11 06:52:06;;;;;;;1999.90;999.90;;;18.90;99.90;;;;;;4952693;29;20410;-75
2022/05/11 07:00:02;;;;;;;1999.90;999.90;;;19.20;99.90;;;;;;4952990;29;20462;-75
2022/05/11 07:02:28;;;;;;;1999.90;999.90;;;19.20;99.90;;;;;;4952285;29;20477;-75
2022/05/11 07:04:53;;;;;;;1999.90;999.90;;;19.20;99.90;;;;;;4952174;29;20980;-75
2022/05/11 07:07:20;;;;;;;1999.90;999.90;;;19.40;99.90;;;;;;4952282;29;20203;-75
2022/05/11 07:09:46;;;;;;;1999.90;999.90;;;19.40;99.90;;;;;;4952419;29;20447;-75
2022/05/11 07:12:17;;;;;;;1999.90;999.90;;;19.40;99.90;;;;;;4952197;29;21539;-75
2022/05/11 07:14:48;;;;;;;1999.90;999.90;;;19.50;99.90;;;;;;4952121;29;20182;-75
2022/05/11 07:17:42;;;;;;;1999.90;999.90;;;19.60;99.90;;;;;;4952339;29;20975;-75
2022/05/11 07:20:21;;;;;;;1999.90;999.90;;;19.60;99.90;;;;;;4952288;29;20422;-75
2022/05/11 07:22:47;;;;;;;1999.90;999.90;;;19.60;99.90;;;;;;4952161;29;20462;-75
2022/05/11 07:25:17;;;;;;;1999.90;999.90;;;19.60;99.90;;;;;;4951989;29;20406;-75
2022/05/11 07:27:44;;;;;;;1999.90;999.90;;;19.70;99.90;;;;;;4952246;29;20452;-75
2022/05/11 07:30:13;;;;;;;1999.90;999.90;;;19.80;99.90;;;;;;4952153;29;20415;-76
2022/05/11 07:32:38;;;;;;;1999.90;999.90;;;19.90;99.90;;;;;;4952096;29;20431;-75
2022/05/11 07:35:05;;;;;;;1999.90;999.90;;;20.00;99.90;;;;;;4951835;29;20474;-75
2022/05/11 07:37:30;;;;;;;1999.90;999.90;;;20.10;99.90;;;;;;4952028;29;20189;-75
2022/05/11 07:39:56;;;;;;;1999.90;999.90;;;20.20;99.90;;;;;;4952055;29;20920;-75
2022/05/11 07:42:23;;;;;;;1999.90;999.90;;;20.30;99.90;;;;;;4951855;29;20217;-74
2022/05/11 07:44:49;;;;;;;1999.90;999.90;;;20.30;99.90;;;;;;4951131;29;20434;-74
2022/05/11 07:47:15;;;;;;;1999.90;999.90;;;20.40;99.90;;;;;;4951798;29;20442;-74
2022/05/11 07:49:41;;;;;;;1999.90;999.90;;;20.40;99.90;;;;;;4951894;29;20626;-73
2022/05/11 07:52:08;;;;;;;1999.90;999.90;;;20.50;99.90;;;;;;4951784;29;20317;-73
2022/05/11 07:54:34;;;;;;;1999.90;999.90;;;20.50;99.90;;;;;;4951602;29;20411;-75
2022/05/11 07:59:56;;;;;;;1999.90;999.90;;;20.70;99.90;;;;;;4952048;29;20406;-76
2022/05/11 08:02:30;;;;;;;1999.90;999.90;;;20.80;99.90;;;;;;4951530;29;20469;-75
2022/05/11 08:04:58;;;;;;;1999.90;999.90;;;20.90;99.90;;;;;;4951477;29;20406;-75
2022/05/11 08:07:27;;;;;;;1999.90;999.90;;;21.00;99.90;;;;;;4951620;29;20452;-75
2022/05/11 08:09:57;;;;;;;1999.90;999.90;;;21.00;99.90;;;;;;4951526;29;20495;-75
2022/05/11 08:12:22;;;;;;;1999.90;999.90;;;21.00;99.90;;;;;;4951364;29;20417;-75
2022/05/11 08:14:48;;;;;;;1999.90;999.90;;;21.20;99.90;;;;;;4951244;29;20403;-75
2022/05/11 08:17:14;;;;;;;1999.90;999.90;;;21.30;99.90;;;;;;4951380;29;20253;-76
2022/05/11 08:19:42;;;;;;;1999.90;999.90;;;21.40;99.90;;;;;;4951444;29;20172;-75
2022/05/11 08:22:08;;;;;;;1999.90;999.90;;;21.40;99.90;;;;;;4951223;29;20571;-75
2022/05/11 08:24:33;;;;;;;1999.90;999.90;;;21.40;99.90;;;;;;4951000;29;20407;-74
2022/05/11 08:26:59;;;;;;;1999.90;999.90;;;21.50;99.90;;;;;;4951353;29;20161;-73
2022/05/11 08:34:54;;;;;;;1999.90;999.90;;;21.50;99.90;;;;;;4951055;29;20423;-75
2022/05/11 08:37:20;;;;;;;1999.90;999.90;;;21.60;99.90;;;;;;4951350;29;20435;-75
2022/05/11 08:39:48;;;;;;;1999.90;999.90;;;21.60;99.90;;;;;;4959813;28;20942;-75
2022/05/11 08:42:14;;;;;;;1999.90;999.90;;;21.70;99.90;;;;;;4969845;28;20472;-75
2022/05/11 08:44:48;;;;;;;1999.90;999.90;;;21.80;99.90;;;;;;4969573;28;20484;-75
2022/05/11 08:47:32;;;;;;;1999.90;999.90;;;22.00;99.90;;;;;;4968477;28;20418;-75
2022/05/11 08:50:16;;;;;;;1999.90;999.90;;;22.00;99.90;;;;;;4970365;28;20386;-75
2022/05/11 08:52:48;;;;;;;1999.90;999.90;;;22.00;99.90;;;;;;4970328;28;20780;-76
2022/05/11 08:55:51;;;;;;;1999.90;999.90;;;22.10;99.90;;;;;;4960088;28;20428;-72
2022/05/11 08:58:21;;;;;;;1999.90;999.90;;;22.20;99.90;;;;;;4967642;28;20411;-71
2022/05/11 09:00:48;;;;;;;1999.90;999.90;;;22.30;99.90;;;;;;4953574;29;20379;-72
2022/05/11 09:03:31;;;;;;;1999.90;999.90;;;22.20;99.90;;;;;;4952911;29;20669;-71
2022/05/11 09:05:58;;;;;;;1999.90;999.90;;;22.10;99.90;;;;;;4949101;29;20466;-72
2022/05/11 09:08:24;;;;;;;1999.90;999.90;;;22.10;99.90;;;;;;4952686;29;20379;-74
2022/05/11 09:10:50;;;;;;;1999.90;999.90;;;22.20;99.90;;;;;;4953496;29;20547;-73
2022/05/11 09:13:18;;;;;;;1999.90;999.90;;;22.10;99.90;;;;;;4952480;29;20539;-72
2022/05/11 09:15:53;;;;;;;1999.90;999.90;;;22.20;99.90;;;;;;4953189;29;20869;-72
2022/05/11 09:18:32;;;;;;;1999.90;999.90;;;22.20;99.90;;;;;;4953051;29;20482;-73
2022/05/11 09:21:10;;;;;;;1999.90;999.90;;;22.30;99.90;;;;;;4952640;29;20433;-73
2022/05/11 09:23:40;;;;;;;1999.90;999.90;;;22.40;99.90;;;;;;4953239;29;20432;-73
2022/05/11 09:26:11;;;;;;;1999.90;999.90;;;22.40;99.90;;;;;;4952548;29;20907;-74
2022/05/11 09:28:42;;;;;;;1999.90;999.90;;;22.50;99.90;;;;;;4952633;29;20423;-73
2022/05/11 09:31:13;;;;;;;1999.90;999.90;;;22.60;99.90;;;;;;4953182;29;20419;-74
2022/05/11 09:33:59;;;;;;;1999.90;999.90;;;22.70;99.90;;;;;;4953142;29;20411;-73
2022/05/11 09:36:40;;;;;;;1999.90;999.90;;;22.70;99.90;;;;;;4952777;29;20414;-74
2022/05/11 09:39:17;;;;;;;1999.90;999.90;;;22.60;99.90;;;;;;4953049;29;20424;-73
2022/05/11 09:41:49;;;;;;;1999.90;999.90;;;22.60;99.90;;;;;;4952927;29;20443;-75
2022/05/11 09:44:46;;;;;;;1999.90;999.90;;;22.80;99.90;;;;;;4952144;29;20412;-73
2022/05/11 09:48:02;;;;;;;1999.90;999.90;;;22.90;99.90;;;;;;4948301;28;20398;-73
2022/05/11 09:50:26;;;;;;;1999.90;999.90;;;22.90;99.90;;;;;;4949691;28;20399;-72
2022/05/11 09:53:07;;;;;;;1999.90;999.90;;;22.90;99.90;;;;;;4952793;29;20515;-73
2022/05/11 09:55:33;;;;;;;1999.90;999.90;;;22.80;99.90;;;;;;4952770;29;20239;-73
2022/05/11 09:58:02;;;;;;;1999.90;999.90;;;22.90;99.90;;;;;;4952399;29;20517;-73
2022/05/11 10:00:40;;;;;;;1999.90;999.90;;;23.10;99.90;;;;;;4952821;29;20864;-73
2022/05/11 10:03:12;;;;;;;1999.90;999.90;;;23.30;99.90;;;;;;4952775;29;20448;-72
2022/05/11 10:05:41;;;;;;;1999.90;999.90;;;23.30;99.90;;;;;;4951740;29;20406;-72
2022/05/11 10:08:31;;;;;;;1999.90;999.90;;;23.30;99.90;;;;;;4934852;28;20400;-73
2022/05/11 10:11:08;;;;;;;1999.90;999.90;;;23.40;99.90;;;;;;4952755;29;20381;-73
2022/05/11 10:13:57;;;;;;;1999.90;999.90;;;23.50;99.90;;;;;;4952194;29;20428;-72
2022/05/11 10:22:30;;;;;;;1999.90;999.90;;;23.70;99.90;;;;;;4952411;29;20511;-72
2022/05/11 10:25:15;;;;;;;1999.90;999.90;;;23.80;99.90;;;;;;4951973;29;20476;-72
2022/05/11 10:28:01;;;;;;;1999.90;999.90;;;23.90;99.90;;;;;;4951648;29;20710;-72
2022/05/11 10:30:33;;;;;;;1999.90;999.90;;;24.00;99.90;;;;;;4952510;29;20830;-72
2022/05/11 10:33:16;;;;;;;1999.90;999.90;;;24.10;99.90;;;;;;4952140;29;20405;-73
2022/05/11 10:35:53;;;;;;;1999.90;999.90;;;24.20;99.90;;;;;;4951529;29;20373;-72
2022/05/11 10:38:49;;;;;;;1999.90;999.90;;;24.20;99.90;;;;;;4952162;29;20403;-72
2022/05/11 10:41:59;;;;;;;1999.90;999.90;;;24.20;99.90;;;;;;4952086;29;20829;-73
2022/05/11 10:44:46;;;;;;;1999.90;999.90;;;24.40;99.90;;;;;;4929735;29;20414;-72
2022/05/11 10:47:31;;;;;;;1999.90;999.90;;;24.40;99.90;;;;;;4934818;28;20378;-73
2022/05/11 10:50:21;;;;;;;1999.90;999.90;;;24.50;99.90;;;;;;4951861;29;20399;-73
2022/05/11 10:52:55;;;;;;;1999.90;999.90;;;24.50;99.90;;;;;;4951470;29;20455;-72
2022/05/11 10:55:30;;;;;;;1999.90;999.90;;;24.70;99.90;;;;;;4951669;29;20839;-72
2022/05/11 10:58:49;;;;;;;1999.90;999.90;;;24.70;99.90;;;;;;4951577;29;20422;-73
2022/05/11 11:01:16;;;;;;;1999.90;999.90;;;24.80;99.90;;;;;;4911507;29;20402;-72
2022/05/11 11:03:57;;;;;;;1999.90;999.90;;;25.00;99.90;;;;;;4948952;29;20533;-73
2022/05/11 11:09:32;;;;;;;1999.90;999.90;;;25.10;99.90;;;;;;4951825;29;20461;-73
2022/05/11 11:12:16;;;;;;;1999.90;999.90;;;25.20;99.90;;;;;;4934052;28;20763;-73
2022/05/11 11:14:47;;;;;;;1999.90;999.90;;;25.40;99.90;;;;;;4951915;29;20509;-72
2022/05/11 11:17:21;;;;;;;1999.90;999.90;;;25.40;99.90;;;;;;4951440;29;20389;-73
2022/05/11 11:19:56;;;;;;;1999.90;999.90;;;25.50;99.90;;;;;;4950341;28;20414;-74
2022/05/11 11:22:22;;;;;;;1999.90;999.90;;;25.50;99.90;;;;;;4951372;29;20449;-73
2022/05/11 11:25:09;;;;;;;1999.90;999.90;;;25.50;99.90;;;;;;4951179;29;20486;-73
2022/05/11 11:28:20;;;;;;;1999.90;999.90;;;25.60;99.90;;;;;;4950718;29;20171;-73
2022/05/11 11:30:58;;;;;;;1999.90;999.90;;;25.60;99.90;;;;;;4919409;29;20762;-72
2022/05/11 11:33:24;;;;;;;1999.90;999.90;;;25.60;99.90;;;;;;4951466;29;20449;-72
2022/05/11 11:36:01;;;;;;;1999.90;999.90;;;25.70;99.70;;;;;;4950777;29;20904;-72
2022/05/11 11:38:38;;;;;;;1999.90;999.90;;;25.70;99.60;;;;;;4951108;29;20422;-73
2022/05/11 11:41:22;;;;;;;1999.90;999.90;;;25.70;99.60;;;;;;4950935;29;20414;-72
2022/05/11 11:43:54;;;;;;;1999.90;999.90;;;25.90;99.90;;;;;;4934088;28;20544;-73
2022/05/11 11:46:30;;;;;;;1999.90;999.90;;;26.00;99.40;;;;;;4950922;29;20905;-72
2022/05/11 11:49:18;;;;;;;1999.90;999.90;;;26.10;97.70;;;;;;4950686;29;20944;-73
2022/05/11 11:51:50;;;;;;;1999.90;999.90;;;26.20;96.80;;;;;;4951219;29;20408;-72
2022/05/11 11:54:37;;;;;;;1999.90;999.90;;;26.40;97.80;;;;;;4950688;29;20425;-73
2022/05/11 11:57:08;;;;;;;1999.90;999.90;;;26.80;97.20;;;;;;4950575;29;20440;-75
2022/05/11 11:59:40;;;;;;;1999.90;999.90;;;27.20;94.80;;;;;;4950730;29;20399;-72
2022/05/11 12:02:30;;;;;;;1999.90;999.90;;;27.70;90.00;;;;;;4950968;29;20513;-73
2022/05/11 12:05:05;;;;;;;1999.90;999.90;;;28.40;89.10;;;;;;4950352;29;20407;-74
2022/05/11 12:16:03;;;;;;;1999.90;999.90;;;29.50;59.70;;;;;;4950994;29;21004;-74
2022/05/11 12:18:32;;;;;;;1999.90;999.90;;;29.80;57.50;;;;;;4950037;29;20414;-73
2022/05/11 12:20:59;;;;;;;1999.90;999.90;;;30.50;54.10;;;;;;4950673;29;20792;-73
2022/05/11 12:23:30;;;;;;;1999.90;999.90;;;31.00;49.30;;;;;;4950563;29;20459;-71
2022/05/11 12:26:00;;;;;;;1999.90;999.90;;;31.30;43.50;;;;;;4950066;29;20413;-72
2022/05/11 12:28:40;;;;;;;1999.90;999.90;;;31.60;45.60;;;;;;4950471;29;20410;-71
2022/05/11 12:31:06;;;;;;;1999.90;999.90;;;31.20;39.80;;;;;;4950630;29;20413;-71
2022/05/11 12:33:39;;;;;;;1999.90;999.90;;;31.00;40.60;;;;;;4950349;29;20832;-71
2022/05/11 12:36:05;;;;;;;1999.90;999.90;;;31.00;36.50;;;;;;4950767;29;20784;-74
2022/05/11 12:38:34;;;;;;;1999.90;999.90;;;31.20;37.60;;;;;;4950798;29;20472;-73
2022/05/11 12:41:13;;;;;;;1999.90;999.90;;;31.60;34.10;;;;;;4950392;29;20421;-75
2022/05/11 12:43:40;;;;;;;1999.90;999.90;;;31.80;35.10;;;;;;4950440;29;20935;-72
2022/05/11 12:46:10;;;;;;;1999.90;999.90;;;31.40;32.90;;;;;;4950305;29;20414;-73
2022/05/11 12:48:53;;;;;;;1999.90;999.90;;;31.20;31.70;;;;;;4932318;28;20422;-73
2022/05/11 12:51:29;;;;;;;1999.90;999.90;;;31.40;31.30;;;;;;4950345;29;20453;-72
2022/05/11 12:53:58;;;;;;;1999.90;999.90;;;31.40;29.70;;;;;;4950104;29;20418;-72
2022/05/11 12:56:32;;;;;;;1999.90;999.90;;;31.50;31.30;;;;;;4949805;29;20411;-73